createdAt,value
2022-08-10T00:01:44.164Z,2.63
2022-08-10T00:04:11.247Z,2.90
2022-08-10T00:09:15.130Z,2.33
2022-08-10T00:11:41.935Z,3.05
2022-08-10T00:14:08.709Z,2.28
2022-08-10T00:16:35.525Z,4.35
2022-08-10T00:19:02.311Z,2.35
2022-08-10T00:21:29.135Z,2.08
2022-08-10T00:23:55.888Z,2.45
2022-08-10T00:28:49.840Z,3.60
2022-08-10T00:31:16.684Z,1.90
2022-08-10T00:33:43.533Z,1.80
2022-08-10T00:36:10.467Z,2.70
2022-08-10T00:41:04.798Z,2.70
2022-08-10T00:43:31.650Z,1.85
2022-08-10T00:46:00.281Z,1.67
2022-08-10T00:48:31.212Z,1.75
2022-08-10T00:50:59.111Z,2.97
2022-08-10T00:53:27.476Z,1.58
2022-08-10T00:58:41.864Z,1.80
2022-08-10T01:02:07.493Z,1.95
2022-08-10T01:04:54.541Z,2.33
2022-08-10T01:06:53.969Z,2.10
2022-08-10T01:12:40.810Z,1.95
2022-08-10T01:15:11.097Z,1.40
2022-08-10T01:17:49.813Z,1.80
2022-08-10T01:20:38.419Z,1.50
2022-08-10T01:23:11.216Z,1.40
2022-08-10T01:31:51.475Z,2.20
2022-08-10T01:34:22.784Z,1.27
2022-08-10T01:37:02.142Z,1.27
2022-08-10T01:39:33.205Z,2.28
2022-08-10T01:42:01.922Z,1.58
2022-08-10T01:44:41.324Z,1.75
2022-08-10T01:50:19.554Z,1.13
2022-08-10T01:52:48.851Z,1.30
2022-08-10T01:55:15.710Z,1.52
2022-08-10T01:57:43.285Z,1.52
2022-08-10T02:00:10.948Z,1.10
2022-08-10T02:02:38.413Z,1.20
2022-08-10T02:05:06.840Z,1.50
2022-08-10T02:07:37.889Z,1.80
2022-08-10T02:10:09.930Z,1.52
2022-08-10T02:12:37.341Z,1.73
2022-08-10T02:15:15.957Z,1.50
2022-08-10T02:17:59.562Z,1.83
2022-08-10T02:20:42.861Z,0.93
2022-08-10T02:23:15.939Z,1.05
2022-08-10T02:25:43.975Z,1.38
2022-08-10T02:28:27.098Z,1.92
2022-08-10T02:31:21.187Z,1.42
2022-08-10T02:33:57.504Z,1.05
2022-08-10T02:36:27.457Z,2.15
2022-08-10T02:45:00.792Z,3.13
2022-08-10T02:45:23.045Z,1.23
2022-08-10T02:47:26.819Z,1.08
2022-08-10T02:50:04.174Z,1.05
2022-08-10T02:52:40.810Z,1.02
2022-08-10T02:55:32.824Z,1.10
2022-08-10T02:58:17.103Z,1.42
2022-08-10T03:00:48.937Z,2.42
2022-08-10T03:03:25.583Z,1.45
2022-08-10T03:06:00.013Z,1.63
2022-08-10T03:08:32.384Z,1.73
2022-08-10T03:11:02.189Z,2.03
2022-08-10T03:13:31.119Z,1.10
2022-08-10T03:15:59.840Z,1.45
2022-08-10T03:18:26.702Z,0.98
2022-08-10T03:20:53.733Z,0.82
2022-08-10T03:23:24.035Z,1.20
2022-08-10T03:25:54.079Z,2.30
2022-08-10T03:28:32.664Z,0.75
2022-08-10T03:31:00.592Z,1.10
2022-08-10T03:33:30.020Z,1.00
2022-08-10T03:38:46.138Z,2.75
2022-08-10T03:43:45.305Z,1.13
2022-08-10T03:46:13.497Z,1.55
2022-08-10T03:48:49.442Z,1.20
2022-08-10T03:51:20.375Z,1.55
2022-08-10T03:54:04.941Z,2.15
2022-08-10T03:56:36.195Z,1.10
2022-08-10T03:59:03.654Z,0.80
2022-08-10T04:02:43.146Z,0.80
2022-08-10T04:04:23.582Z,2.17
2022-08-10T04:06:54.388Z,0.82
2022-08-10T04:09:23.516Z,1.35
2022-08-10T04:11:50.352Z,1.15
2022-08-10T04:14:38.150Z,1.48
2022-08-10T04:17:04.086Z,0.82
2022-08-10T04:19:37.079Z,1.02
2022-08-10T04:22:16.931Z,2.50
2022-08-10T04:24:46.349Z,0.77
2022-08-10T04:29:40.058Z,1.08
2022-08-10T04:32:08.209Z,1.10
2022-08-10T04:34:35.943Z,1.02
2022-08-10T04:37:08.884Z,1.10
2022-08-10T04:39:36.232Z,0.88
2022-08-10T04:42:03.727Z,1.10
2022-08-10T04:44:31.024Z,1.85
2022-08-10T04:46:59.389Z,1.48
2022-08-10T04:49:56.091Z,0.80
2022-08-10T04:52:14.479Z,1.42
2022-08-10T04:54:41.752Z,1.80
2022-08-10T04:57:09.279Z,1.10
2022-08-10T04:59:36.261Z,1.08
2022-08-10T05:02:28.293Z,1.23
2022-08-10T05:04:49.974Z,1.52
2022-08-10T05:07:18.098Z,1.38
2022-08-10T05:10:03.210Z,1.87
2022-08-10T05:12:38.275Z,1.38
2022-08-10T05:15:07.285Z,1.38
2022-08-10T05:17:35.748Z,1.27
2022-08-10T05:20:06.906Z,1.90
2022-08-10T05:22:44.910Z,1.23
2022-08-10T05:27:47.217Z,1.55
2022-08-10T05:30:17.772Z,1.73
2022-08-10T05:32:55.366Z,0.88
2022-08-10T05:35:25.283Z,1.65
2022-08-10T05:38:09.660Z,2.22
2022-08-10T05:40:46.932Z,1.20
2022-08-10T05:43:18.845Z,2.25
2022-08-10T05:46:17.287Z,1.25
2022-08-10T05:48:57.253Z,2.45
2022-08-10T05:51:22.251Z,7.90
2022-08-10T05:54:01.940Z,5.68
2022-08-10T05:56:55.937Z,4.43
2022-08-10T06:00:29.334Z,4.97
2022-08-10T06:02:36.397Z,4.63
2022-08-10T06:05:16.212Z,6.15
2022-08-10T06:07:48.703Z,7.82
2022-08-10T06:10:28.592Z,9.80
2022-08-10T06:13:30.193Z,3.47
2022-08-10T06:16:04.861Z,4.50
2022-08-10T06:18:31.969Z,6.32
2022-08-10T06:21:00.717Z,5.55
2022-08-10T06:23:29.689Z,7.78
2022-08-10T06:26:10.808Z,8.70
2022-08-10T06:29:03.127Z,15.68
2022-08-10T06:34:14.965Z,9.65
2022-08-10T06:36:44.933Z,5.78
2022-08-10T06:39:32.363Z,6.90
2022-08-10T06:42:18.295Z,6.50
2022-08-10T06:45:09.252Z,4.10
2022-08-10T06:47:45.433Z,8.43
2022-08-10T06:50:55.931Z,3.47
2022-08-10T06:53:52.809Z,4.43
2022-08-10T06:56:18.469Z,6.20
2022-08-10T06:58:55.056Z,7.68
2022-08-10T07:01:25.548Z,4.72
2022-08-10T07:04:16.040Z,4.78
2022-08-10T07:06:46.547Z,5.28
2022-08-10T07:09:15.698Z,7.57
2022-08-10T07:11:45.059Z,3.63
2022-08-10T07:14:15.569Z,4.30
2022-08-10T07:16:45.952Z,5.03
2022-08-10T07:19:13.242Z,3.88
2022-08-10T07:21:41.512Z,5.05
2022-08-10T07:24:14.160Z,4.18
2022-08-10T07:26:46.085Z,3.50
2022-08-10T07:29:52.746Z,3.22
2022-08-10T07:32:03.348Z,3.78
2022-08-10T07:34:31.801Z,10.45
2022-08-10T07:37:06.609Z,5.85
2022-08-10T07:40:03.754Z,5.78
2022-08-10T07:42:28.303Z,4.68
2022-08-10T07:44:58.158Z,6.30
2022-08-10T07:47:53.460Z,7.22
2022-08-10T07:50:23.262Z,6.05
2022-08-10T07:52:55.648Z,4.87
2022-08-10T07:56:07.788Z,8.23
2022-08-10T07:58:10.706Z,4.22
2022-08-10T08:00:37.965Z,3.42
2022-08-10T08:05:58.540Z,7.10
2022-08-10T08:08:22.674Z,3.92
2022-08-10T08:10:49.938Z,3.67
2022-08-10T08:13:17.561Z,6.20
2022-08-10T08:16:20.669Z,6.25
2022-08-10T08:18:32.339Z,9.80
2022-08-10T08:21:04.045Z,4.53
2022-08-10T08:24:07.659Z,5.68
2022-08-10T08:26:39.222Z,6.30
2022-08-10T08:29:06.091Z,3.05
2022-08-10T08:31:33.274Z,5.13
2022-08-10T08:34:00.601Z,6.43
2022-08-10T08:36:27.958Z,4.95
2022-08-10T08:38:55.555Z,5.15
2022-08-10T08:42:10.081Z,6.40
2022-08-10T08:45:08.256Z,8.65
2022-08-10T08:52:09.199Z,5.85
2022-08-10T08:54:35.007Z,6.72
2022-08-10T08:57:49.095Z,6.55
2022-08-10T09:00:18.866Z,13.15
2022-08-10T09:02:55.089Z,6.00
2022-08-10T09:05:59.231Z,9.27
2022-08-10T09:12:11.309Z,8.88
2022-08-10T09:14:44.889Z,7.18
2022-08-10T09:20:08.057Z,5.63
2022-08-10T09:22:50.531Z,5.50
2022-08-10T09:25:25.363Z,10.40
2022-08-10T09:28:08.456Z,7.28
2022-08-10T09:37:15.149Z,11.32
2022-08-10T09:40:12.315Z,23.23
2022-08-10T09:43:25.933Z,13.50
2022-08-10T09:49:11.861Z,6.35
2022-08-10T09:58:03.875Z,9.98
2022-08-10T10:00:36.662Z,5.38
2022-08-10T10:03:25.960Z,6.97
2022-08-10T10:08:43.076Z,9.25
2022-08-10T10:11:21.211Z,7.20
2022-08-10T10:20:09.650Z,5.10
2022-08-10T10:32:36.841Z,3.42
2022-08-10T10:35:27.262Z,5.03
2022-08-10T10:38:01.085Z,4.30
2022-08-10T10:43:38.267Z,5.68
2022-08-10T10:46:28.381Z,8.07
2022-08-10T10:49:10.553Z,9.07
2022-08-10T10:52:09.160Z,8.52
2022-08-10T10:57:59.160Z,5.90
2022-08-10T11:02:49.372Z,10.63
2022-08-10T11:08:08.085Z,4.78
2022-08-10T11:10:49.491Z,6.93
2022-08-10T11:16:30.107Z,7.47
2022-08-10T11:21:50.617Z,3.88
2022-08-10T11:24:47.943Z,6.57
2022-08-10T11:29:59.677Z,10.88
2022-08-10T11:32:30.617Z,11.43
2022-08-10T11:35:11.688Z,11.05
2022-08-10T11:47:53.117Z,7.85
2022-08-10T11:50:29.266Z,7.00
2022-08-10T11:53:35.207Z,15.57
2022-08-10T11:56:10.993Z,7.68
2022-08-10T11:59:00.441Z,7.93
2022-08-10T12:01:30.704Z,6.20
2022-08-10T12:04:00.139Z,9.52
2022-08-10T12:10:09.980Z,7.35
2022-08-10T12:14:35.069Z,4.25
2022-08-10T12:17:20.394Z,10.73
2022-08-10T12:20:18.026Z,14.25
2022-08-10T12:26:14.102Z,12.80
2022-08-10T12:29:06.068Z,13.45
2022-08-10T12:31:41.164Z,9.07
2022-08-10T12:46:45.593Z,3.88
2022-08-10T12:49:19.388Z,5.70
2022-08-10T12:51:50.676Z,11.98
2022-08-10T12:54:32.076Z,5.30
2022-08-10T12:57:21.920Z,5.95
2022-08-10T12:59:52.658Z,6.00
2022-08-10T13:02:28.200Z,5.07
2022-08-10T13:04:58.074Z,4.22
2022-08-10T13:08:24.934Z,8.43
2022-08-10T13:10:20.420Z,5.28
2022-08-10T13:15:44.546Z,4.63
2022-08-10T13:18:19.047Z,3.28
2022-08-10T13:20:54.034Z,6.07
2022-08-10T13:23:27.024Z,6.30
2022-08-10T13:25:55.790Z,2.55
2022-08-10T13:34:40.412Z,7.45
2022-08-10T13:36:42.090Z,5.72
2022-08-10T13:39:09.777Z,8.05
2022-08-10T13:49:24.532Z,4.22
2022-08-10T13:51:54.517Z,5.55
2022-08-10T13:54:39.382Z,2.53
2022-08-10T13:57:06.844Z,3.88
2022-08-10T14:00:35.063Z,2.80
2022-08-10T14:02:29.020Z,4.65
2022-08-10T14:12:38.008Z,2.20
2022-08-10T14:15:08.040Z,2.22
2022-08-10T14:22:42.194Z,3.25
2022-08-10T14:28:02.040Z,1.75
2022-08-10T14:40:57.579Z,2.38
2022-08-10T14:43:28.900Z,2.17
2022-08-10T14:46:07.178Z,2.58
2022-08-10T14:48:45.655Z,3.97
2022-08-10T14:51:16.112Z,2.45
2022-08-10T14:53:43.833Z,2.78
2022-08-10T15:04:29.410Z,2.08
2022-08-10T15:07:02.528Z,1.70
2022-08-10T15:12:36.074Z,2.03
2022-08-10T15:15:05.585Z,2.75
2022-08-10T15:17:35.797Z,3.00
2022-08-10T15:22:50.462Z,1.95
2022-08-10T15:25:24.751Z,4.05
2022-08-10T15:28:05.504Z,4.93
2022-08-10T15:30:39.521Z,1.80
2022-08-10T15:34:02.206Z,4.38
2022-08-10T15:36:36.804Z,2.47
2022-08-10T15:42:05.290Z,2.67
2022-08-10T15:44:43.691Z,2.05
2022-08-10T15:50:23.878Z,4.50
2022-08-10T15:58:18.773Z,4.38
2022-08-10T16:01:00.754Z,5.53
2022-08-10T16:10:23.541Z,4.80
2022-08-10T16:15:07.902Z,5.93
2022-08-10T16:20:27.141Z,7.38
2022-08-10T16:23:05.686Z,8.93
2022-08-10T16:25:51.301Z,7.30
2022-08-10T16:28:23.851Z,5.20
2022-08-10T16:33:53.468Z,5.82
2022-08-10T16:36:19.291Z,6.70
2022-08-10T16:38:48.751Z,7.03
2022-08-10T16:42:00.663Z,6.18
2022-08-10T16:51:30.839Z,8.00
2022-08-10T16:59:20.751Z,5.45
2022-08-10T17:01:53.962Z,7.03
2022-08-10T17:04:22.912Z,6.82
2022-08-10T17:06:56.725Z,6.77
2022-08-10T17:12:05.431Z,5.15
2022-08-10T17:14:32.407Z,5.18
2022-08-10T17:17:20.160Z,5.40
2022-08-10T17:19:47.980Z,5.05
2022-08-10T17:24:57.854Z,5.22
2022-08-10T17:28:03.775Z,4.60
2022-08-10T17:30:33.726Z,4.65
2022-08-10T17:38:21.302Z,3.28
2022-08-10T17:41:12.307Z,5.90
2022-08-10T17:43:58.632Z,5.53
2022-08-10T17:46:38.554Z,3.97
2022-08-10T17:49:11.170Z,4.22
2022-08-10T17:51:40.629Z,5.53
2022-08-10T17:54:09.985Z,5.18
2022-08-10T17:59:17.316Z,4.60
2022-08-10T18:04:26.832Z,3.97
2022-08-10T18:12:17.911Z,4.00
2022-08-10T18:20:08.273Z,4.38
2022-08-10T18:22:42.145Z,3.20
2022-08-10T18:25:12.804Z,3.33
2022-08-10T18:28:01.238Z,4.15
2022-08-10T18:30:29.194Z,3.72
2022-08-10T18:32:59.616Z,4.40
2022-08-10T18:35:34.420Z,3.92
2022-08-10T18:38:02.406Z,4.78
2022-08-10T18:45:57.378Z,5.53
2022-08-10T18:48:32.582Z,4.47
2022-08-10T18:53:36.240Z,3.97
2022-08-10T19:47:45.637Z,4.25
2022-08-10T20:21:48.263Z,2.83
2022-08-10T20:32:50.980Z,5.20
2022-08-10T20:35:31.288Z,4.03
2022-08-10T20:41:15.756Z,4.25
2022-08-10T20:43:47.873Z,2.60
2022-08-10T20:46:35.812Z,3.40
2022-08-10T20:52:00.365Z,2.75
2022-08-10T20:54:33.651Z,2.53
2022-08-10T21:00:23.578Z,3.75
2022-08-10T21:14:50.266Z,4.90
2022-08-10T21:21:00.248Z,5.88
2022-08-10T21:26:10.261Z,3.97
2022-08-10T21:37:13.332Z,3.50
2022-08-10T21:47:02.774Z,9.20
2022-08-10T21:49:57.427Z,6.47
2022-08-10T21:53:00.882Z,4.13
2022-08-10T22:05:04.021Z,2.58
2022-08-10T22:10:41.343Z,4.78
2022-08-10T22:22:29.193Z,3.85
2022-08-10T22:28:24.315Z,7.97
2022-08-10T22:31:31.810Z,6.40
2022-08-10T22:44:36.097Z,2.85
2022-08-10T22:47:22.345Z,3.42
2022-08-10T22:49:52.940Z,2.38
2022-08-10T22:55:23.671Z,3.75
2022-08-10T23:00:37.289Z,5.22
2022-08-10T23:03:13.014Z,8.60
2022-08-10T23:05:54.360Z,6.53
2022-08-10T23:08:31.014Z,6.70
2022-08-10T23:11:04.028Z,4.55
2022-08-10T23:13:40.737Z,4.70
2022-08-10T23:16:35.821Z,3.13
2022-08-10T23:30:16.908Z,5.10
2022-08-10T23:36:30.313Z,4.07
2022-08-10T23:38:09.798Z,3.45
2022-08-10T23:43:05.344Z,5.17
2022-08-10T23:45:53.137Z,3.85
2022-08-10T23:48:24.430Z,3.00
2022-08-10T23:50:59.333Z,4.63
2022-08-10T23:56:17.412Z,4.07
2022-08-10T23:58:49.449Z,3.00
